Terminal Aerodrome Forecast
Issued by NWS

Home | Current Version | Previous Version | Text Only | Print | Product List | Glossary On
Versions: 1 2 3 4 5 6 7 8 9 10 11 12
000
FTPQ31 PGUM 271123
TAFGUM
TAF

TAF
PKWA 271123Z 2712/2812 07007KT P6SM VCSH SCT018 SCT050
     FM271800 11006KT P6SM VCSH SCT015 SCT040 BKN120
     FM280100 07011KT P6SM VCSH SCT015 BKN040 BKN120=

USA.gov is the U.S. government's official web portal to all federal, state and local government web resources and services.